createdAt,value
2022-12-25T00:02:00.717Z,100699.16
2022-12-25T00:05:03.952Z,100712.88
2022-12-25T00:08:07.048Z,100706.78
2022-12-25T00:11:13.123Z,100691.28
2022-12-25T00:14:15.567Z,100699.88
2022-12-25T00:17:17.978Z,100695.78
2022-12-25T00:20:20.605Z,100711.81
2022-12-25T00:23:23.166Z,100708.03
2022-12-25T00:26:27.297Z,100719.03
2022-12-25T00:29:29.890Z,100727.06
2022-12-25T00:32:34.566Z,100721.94
2022-12-25T00:35:37.043Z,100718.66
2022-12-25T00:38:40.771Z,100736.19
2022-12-25T00:42:01.660Z,100742.03
2022-12-25T00:45:05.874Z,100748.16
2022-12-25T00:48:08.305Z,100745.97
2022-12-25T00:51:12.131Z,100747.78
2022-12-25T00:54:14.591Z,100738.28
2022-12-25T00:57:17.049Z,100734.03
2022-12-25T01:00:19.803Z,100754.91
2022-12-25T01:03:23.520Z,100754.06
2022-12-25T01:06:26.480Z,100760.41
2022-12-25T01:09:47.398Z,100763.53
2022-12-25T01:12:51.526Z,100771.28
2022-12-25T01:15:54.633Z,100766.63
2022-12-25T01:18:57.662Z,100762.16
2022-12-25T01:22:00.184Z,100775.78
2022-12-25T01:25:02.815Z,100771.50
2022-12-25T01:28:05.404Z,100782.31
2022-12-25T01:31:15.657Z,100771.59
2022-12-25T01:34:18.142Z,100769.25
2022-12-25T01:37:20.742Z,100777.78
2022-12-25T01:40:23.221Z,100786.94
2022-12-25T01:43:31.952Z,100774.88
2022-12-25T01:46:35.412Z,100779.19
2022-12-25T01:49:40.231Z,100786.22
2022-12-25T01:52:42.915Z,100782.22
2022-12-25T01:55:51.133Z,100782.38
2022-12-25T01:58:56.724Z,100793.53
2022-12-25T02:02:00.862Z,100797.34
2022-12-25T02:05:09.910Z,100779.09
2022-12-25T02:08:15.400Z,100790.31
2022-12-25T02:11:40.786Z,100788.16
2022-12-25T02:14:43.454Z,100783.00
2022-12-25T02:18:11.549Z,100789.59
2022-12-25T02:21:43.334Z,100784.78
2022-12-25T02:25:13.287Z,100788.22
2022-12-25T02:28:22.817Z,100794.53
2022-12-25T02:32:02.191Z,100789.19
2022-12-25T02:35:24.450Z,100786.00
2022-12-25T02:39:14.805Z,100798.94
2022-12-25T02:42:57.777Z,100808.91
2022-12-25T02:46:24.581Z,100809.34
2022-12-25T02:49:48.049Z,100792.94
2022-12-25T02:53:11.291Z,100795.28
2022-12-25T02:56:32.539Z,100801.38
2022-12-25T02:59:58.716Z,100807.56
2022-12-25T03:03:24.418Z,100822.16
2022-12-25T03:06:44.798Z,100835.41
2022-12-25T03:10:21.851Z,100833.97
2022-12-25T03:13:29.358Z,100832.09
2022-12-25T03:16:50.000Z,100833.25
2022-12-25T03:20:11.407Z,100828.75
2022-12-25T03:23:37.785Z,100837.78
2022-12-25T03:26:55.695Z,100833.53
2022-12-25T03:30:16.982Z,100854.72
2022-12-25T03:33:46.649Z,100858.81
2022-12-25T03:37:24.298Z,100867.06
2022-12-25T03:41:02.120Z,100867.84
2022-12-25T03:44:44.335Z,100867.53
2022-12-25T03:48:10.527Z,100847.31
2022-12-25T03:51:34.487Z,100845.91
2022-12-25T03:54:57.137Z,100860.81
2022-12-25T03:58:18.298Z,100854.50
2022-12-25T04:01:39.097Z,100864.28
2022-12-25T04:05:00.275Z,100856.91
2022-12-25T04:08:21.747Z,100860.16
2022-12-25T04:11:43.060Z,100858.66
2022-12-25T04:15:03.955Z,100847.94
2022-12-25T04:18:24.891Z,100856.03
2022-12-25T04:21:46.178Z,100867.16
2022-12-25T04:25:06.895Z,100850.97
2022-12-25T04:28:27.784Z,100858.53
2022-12-25T04:31:48.522Z,100869.94
2022-12-25T04:35:09.724Z,100862.84
2022-12-25T04:38:12.208Z,100858.53
2022-12-25T04:41:14.840Z,100861.19
2022-12-25T04:44:17.311Z,100861.78
2022-12-25T04:47:19.840Z,100857.41
2022-12-25T04:50:22.333Z,100859.88
2022-12-25T04:53:24.841Z,100878.38
2022-12-25T04:56:27.395Z,100880.06
2022-12-25T04:59:29.929Z,100880.25
2022-12-25T05:02:32.777Z,100875.44
2022-12-25T05:05:39.469Z,100880.72
2022-12-25T05:08:41.921Z,100883.91
2022-12-25T05:11:44.409Z,100882.44
2022-12-25T05:14:47.091Z,100883.78
2022-12-25T05:17:50.714Z,100892.47
2022-12-25T05:20:54.786Z,100904.38
2022-12-25T05:23:57.259Z,100891.41
2022-12-25T05:26:59.781Z,100894.00
2022-12-25T05:30:03.118Z,100891.69
2022-12-25T05:33:05.678Z,100903.13
2022-12-25T05:36:10.454Z,100907.47
2022-12-25T05:39:12.971Z,100914.69
2022-12-25T05:42:15.420Z,100908.78
2022-12-25T05:45:18.019Z,100909.38
2022-12-25T05:48:20.656Z,100907.03
2022-12-25T05:51:23.263Z,100915.69
2022-12-25T05:54:25.816Z,100921.06
2022-12-25T05:57:29.409Z,100925.81
2022-12-25T06:00:32.222Z,100922.88
2022-12-25T06:03:34.777Z,100922.50
2022-12-25T06:06:37.362Z,100937.28
2022-12-25T06:09:39.774Z,100935.22
2022-12-25T06:12:42.228Z,100930.78
2022-12-25T06:15:44.761Z,100930.34
2022-12-25T06:18:49.886Z,100924.25
2022-12-25T06:21:55.793Z,100928.97
2022-12-25T06:24:58.678Z,100932.31
2022-12-25T06:28:01.125Z,100932.47
2022-12-25T06:31:15.073Z,100940.63
2022-12-25T06:34:17.540Z,100936.75
2022-12-25T06:37:20.102Z,100940.22
2022-12-25T06:40:22.702Z,100926.63
2022-12-25T06:43:25.090Z,100932.31
2022-12-25T06:46:29.563Z,100941.47
2022-12-25T06:49:32.423Z,100941.31
2022-12-25T06:52:35.025Z,100942.31
2022-12-25T06:55:37.458Z,100944.22
2022-12-25T06:58:39.899Z,100953.28
2022-12-25T07:01:50.813Z,100956.16
2022-12-25T07:04:53.986Z,100962.97
2022-12-25T07:07:56.619Z,100985.34
2022-12-25T07:10:59.310Z,100982.97
2022-12-25T07:14:01.815Z,100988.13
2022-12-25T07:17:04.321Z,100990.38
2022-12-25T07:20:07.647Z,101009.53
2022-12-25T07:23:10.095Z,101003.19
2022-12-25T07:26:13.405Z,101008.88
2022-12-25T07:29:16.512Z,101008.59
2022-12-25T07:32:19.043Z,101012.06
2022-12-25T07:35:21.487Z,101016.94
2022-12-25T07:38:24.013Z,101016.66
2022-12-25T07:41:26.509Z,101026.38
2022-12-25T07:44:44.679Z,101018.59
2022-12-25T07:47:47.317Z,101026.78
2022-12-25T07:50:56.116Z,101035.81
2022-12-25T07:53:58.668Z,101035.09
2022-12-25T07:57:01.058Z,101030.53
2022-12-25T08:00:05.004Z,101037.22
2022-12-25T08:03:15.962Z,101035.78
2022-12-25T08:06:18.753Z,101054.00
2022-12-25T08:09:21.269Z,101056.88
2022-12-25T08:12:24.003Z,101063.88
2022-12-25T08:15:26.535Z,101064.22
2022-12-25T08:18:30.705Z,101063.59
2022-12-25T08:21:33.408Z,101064.53
2022-12-25T08:24:35.906Z,101067.66
2022-12-25T08:27:38.386Z,101067.44
2022-12-25T08:30:41.043Z,101079.56
2022-12-25T08:33:44.257Z,101068.38
2022-12-25T08:36:46.732Z,101061.06
2022-12-25T08:39:49.766Z,101069.50
2022-12-25T08:42:52.211Z,101071.69
2022-12-25T08:45:54.817Z,101070.28
2022-12-25T08:48:57.872Z,101060.47
2022-12-25T08:52:00.388Z,101065.13
2022-12-25T08:55:03.461Z,101058.13
2022-12-25T08:58:06.054Z,101075.91
2022-12-25T09:01:09.099Z,101061.00
2022-12-25T09:04:11.687Z,101068.47
2022-12-25T09:07:14.119Z,101065.66
2022-12-25T09:10:17.137Z,101069.00
2022-12-25T09:13:19.847Z,101073.34
2022-12-25T09:16:23.487Z,101072.00
2022-12-25T09:19:26.047Z,101072.81
2022-12-25T09:22:28.731Z,101066.88
2022-12-25T09:25:31.177Z,101074.19
2022-12-25T09:28:34.001Z,101072.19
2022-12-25T09:31:37.118Z,101071.63
2022-12-25T09:34:39.952Z,101072.81
2022-12-25T09:37:42.402Z,101072.53
2022-12-25T09:40:44.895Z,101074.72
2022-12-25T09:43:55.017Z,101074.06
2022-12-25T09:47:01.974Z,101088.34
2022-12-25T09:50:17.556Z,101081.69
2022-12-25T09:53:23.899Z,101073.06
2022-12-25T09:56:26.654Z,101082.50
2022-12-25T09:59:29.367Z,101084.31
2022-12-25T10:02:48.149Z,101083.69
2022-12-25T10:06:19.691Z,101087.84
2022-12-25T10:09:28.991Z,101085.66
2022-12-25T10:12:45.638Z,101083.00
2022-12-25T10:16:04.667Z,101085.78
2022-12-25T10:19:28.129Z,101083.28
2022-12-25T10:22:37.985Z,101088.41
2022-12-25T10:25:41.827Z,101085.72
2022-12-25T10:28:53.955Z,101076.34
2022-12-25T10:31:56.837Z,101068.53
2022-12-25T10:34:59.329Z,101058.72
2022-12-25T10:38:09.839Z,101067.88
2022-12-25T10:41:41.021Z,101066.59
2022-12-25T10:44:58.050Z,101067.44
2022-12-25T10:48:08.016Z,101061.88
2022-12-25T10:51:10.739Z,101055.03
2022-12-25T10:54:28.456Z,101068.59
2022-12-25T10:57:30.992Z,101056.81
2022-12-25T11:00:33.652Z,101059.06
2022-12-25T11:03:40.562Z,101044.50
2022-12-25T11:06:43.119Z,101037.19
2022-12-25T11:10:06.109Z,101052.25
2022-12-25T11:13:27.861Z,101047.06
2022-12-25T11:16:38.099Z,101039.34
2022-12-25T11:19:52.276Z,101032.75
2022-12-25T11:22:55.084Z,101034.38
2022-12-25T11:26:08.470Z,101036.25
2022-12-25T11:29:19.625Z,101030.44
2022-12-25T11:32:27.738Z,101032.19
2022-12-25T11:35:46.039Z,101022.66
2022-12-25T11:38:48.543Z,101024.22
2022-12-25T11:41:58.024Z,101027.09
2022-12-25T11:45:18.359Z,101013.63
2022-12-25T11:48:33.817Z,101028.09
2022-12-25T11:51:40.325Z,101031.97
2022-12-25T11:54:57.221Z,101018.34
2022-12-25T11:58:06.431Z,101015.03
2022-12-25T12:01:47.163Z,101007.13
2022-12-25T12:04:56.034Z,101004.91
2022-12-25T12:08:04.485Z,100996.53
2022-12-25T12:11:26.434Z,100998.06
2022-12-25T12:14:57.001Z,100996.03
2022-12-25T12:18:17.976Z,100997.69
2022-12-25T12:21:23.216Z,101005.97
2022-12-25T12:24:33.459Z,101004.00
2022-12-25T12:27:39.516Z,101010.34
2022-12-25T12:30:42.141Z,101004.25
2022-12-25T12:33:53.239Z,101000.22
2022-12-25T12:37:24.462Z,101001.59
2022-12-25T12:40:41.362Z,101000.66
2022-12-25T12:43:54.890Z,101004.16
2022-12-25T12:46:58.071Z,100993.53
2022-12-25T12:50:02.090Z,101006.91
2022-12-25T12:53:28.482Z,101013.72
2022-12-25T12:56:31.045Z,101008.06
2022-12-25T12:59:44.432Z,101006.88
2022-12-25T13:03:21.828Z,101011.50
2022-12-25T13:06:40.920Z,101019.53
2022-12-25T13:09:43.692Z,101024.81
2022-12-25T13:12:50.239Z,101024.69
2022-12-25T13:15:53.307Z,101023.63
2022-12-25T13:18:57.087Z,101021.31
2022-12-25T13:22:05.941Z,101027.31
2022-12-25T13:25:20.236Z,101022.66
2022-12-25T13:28:31.384Z,101029.38
2022-12-25T13:31:34.037Z,101016.50
2022-12-25T13:34:38.531Z,101025.69
2022-12-25T13:37:42.277Z,101024.34
2022-12-25T13:41:14.951Z,101019.66
2022-12-25T13:44:26.223Z,101026.47
2022-12-25T13:47:31.493Z,101026.34
2022-12-25T13:50:34.731Z,101014.94
2022-12-25T13:53:37.985Z,101031.22
2022-12-25T13:56:54.718Z,101036.16
2022-12-25T13:59:57.829Z,101028.50
2022-12-25T14:03:00.771Z,101026.22
2022-12-25T14:06:06.755Z,101033.75
2022-12-25T14:09:11.291Z,101024.50
2022-12-25T14:12:19.105Z,101025.16
2022-12-25T14:15:23.698Z,101025.25
2022-12-25T14:18:27.188Z,101024.78
2022-12-25T14:21:33.924Z,101030.13
2022-12-25T14:24:39.402Z,101033.00
2022-12-25T14:27:49.462Z,101032.53
2022-12-25T14:30:52.405Z,101041.75
2022-12-25T14:33:55.309Z,101054.84
2022-12-25T14:36:57.936Z,101042.94
2022-12-25T14:40:05.188Z,101044.56
2022-12-25T14:43:25.180Z,101045.91
2022-12-25T14:46:31.720Z,101043.41
2022-12-25T14:49:38.395Z,101042.75
2022-12-25T14:52:45.423Z,101051.13
2022-12-25T14:55:56.830Z,101061.19
2022-12-25T14:59:00.295Z,101066.00
2022-12-25T15:02:03.399Z,101059.41
2022-12-25T15:05:23.672Z,101053.44
2022-12-25T15:08:26.164Z,101054.53
2022-12-25T15:11:29.752Z,101049.56
2022-12-25T15:14:32.175Z,101056.41
2022-12-25T15:17:36.423Z,101048.72
2022-12-25T15:20:39.015Z,101058.25
2022-12-25T15:23:41.581Z,101063.03
2022-12-25T15:26:44.602Z,101055.56
2022-12-25T15:33:17.834Z,101049.84
2022-12-25T15:36:22.545Z,101063.75
2022-12-25T15:39:24.950Z,101060.44
2022-12-25T15:42:27.622Z,101073.13
2022-12-25T15:45:31.436Z,101070.53
2022-12-25T15:48:33.887Z,101073.50
2022-12-25T15:51:36.546Z,101082.50
2022-12-25T15:54:39.078Z,101073.75
2022-12-25T15:57:44.906Z,101059.28
2022-12-25T16:00:47.329Z,101063.63
2022-12-25T16:03:49.861Z,101059.63
2022-12-25T16:06:52.993Z,101061.25
2022-12-25T16:09:55.512Z,101062.72
2022-12-25T16:12:57.956Z,101052.38
2022-12-25T16:16:01.850Z,101060.28
2022-12-25T16:19:04.892Z,101056.22
2022-12-25T16:22:39.831Z,101058.59
2022-12-25T16:25:42.459Z,101051.53
2022-12-25T16:28:44.918Z,101055.00
2022-12-25T16:31:47.463Z,101043.53
2022-12-25T16:34:50.087Z,101055.16
2022-12-25T16:37:52.471Z,101047.97
2022-12-25T16:40:58.038Z,101048.50
2022-12-25T16:44:09.217Z,101038.91
2022-12-25T16:47:11.974Z,101033.88
2022-12-25T16:50:14.947Z,101030.38
2022-12-25T16:53:17.392Z,101037.56
2022-12-25T16:56:28.334Z,101037.28
2022-12-25T16:59:31.199Z,101038.44
2022-12-25T17:02:33.795Z,101045.81
2022-12-25T17:05:36.387Z,101025.09
2022-12-25T17:08:38.866Z,101040.63
2022-12-25T17:11:41.435Z,101035.28
2022-12-25T17:14:43.955Z,101034.53
2022-12-25T17:17:46.461Z,101041.22
2022-12-25T17:20:50.796Z,101038.25
2022-12-25T17:23:58.177Z,101036.47
2022-12-25T17:27:08.551Z,101046.88
2022-12-25T17:30:11.414Z,101043.72
2022-12-25T17:33:13.884Z,101035.41
2022-12-25T17:36:19.146Z,101024.34
2022-12-25T17:39:21.677Z,101018.94
2022-12-25T17:42:24.161Z,101014.59
2022-12-25T17:45:26.702Z,101004.41
2022-12-25T17:48:29.153Z,101003.84
2022-12-25T17:51:31.872Z,101002.41
2022-12-25T17:54:35.287Z,101010.22
2022-12-25T17:57:37.789Z,101004.63
2022-12-25T18:00:40.282Z,101016.09
2022-12-25T18:03:43.577Z,101009.81
2022-12-25T18:06:46.348Z,101022.28
2022-12-25T18:09:48.829Z,101011.66
2022-12-25T18:12:51.418Z,101015.22
2022-12-25T18:15:53.850Z,101021.72
2022-12-25T18:18:56.699Z,101026.75
2022-12-25T18:21:59.142Z,101026.41
2022-12-25T18:25:01.592Z,101032.44
2022-12-25T18:28:04.273Z,101020.06
2022-12-25T18:31:11.216Z,101022.19
2022-12-25T18:34:13.780Z,101016.84
2022-12-25T18:37:16.180Z,101009.53
2022-12-25T18:40:18.707Z,101013.03
2022-12-25T18:43:21.134Z,101013.78
2022-12-25T18:46:43.650Z,101016.00
2022-12-25T18:49:46.322Z,101008.28
2022-12-25T18:52:51.615Z,101004.34
2022-12-25T18:55:56.583Z,101014.38
2022-12-25T18:59:00.705Z,101001.78
2022-12-25T19:02:03.295Z,101016.09
2022-12-25T19:05:06.266Z,101000.00
2022-12-25T19:08:09.188Z,101005.84
2022-12-25T19:11:11.740Z,100994.25
2022-12-25T19:14:14.673Z,100995.28
2022-12-25T19:17:18.026Z,100984.13
2022-12-25T19:20:20.500Z,100985.06
2022-12-25T19:23:23.237Z,100991.91
2022-12-25T19:26:25.727Z,100990.25
2022-12-25T19:29:28.354Z,100991.97
2022-12-25T19:32:31.150Z,100986.97
2022-12-25T19:35:34.274Z,100989.47
2022-12-25T19:38:36.894Z,100997.59
2022-12-25T19:41:39.960Z,101006.22
2022-12-25T19:44:43.528Z,100997.44
2022-12-25T19:47:45.968Z,100991.25
2022-12-25T19:50:48.602Z,100982.22
2022-12-25T19:53:51.668Z,100978.25
2022-12-25T19:56:54.110Z,100981.25
2022-12-25T19:59:56.886Z,100973.16
2022-12-25T20:03:01.431Z,100949.72
2022-12-25T20:06:05.989Z,100950.56
2022-12-25T20:09:12.893Z,100942.91
2022-12-25T20:12:16.380Z,100936.56
2022-12-25T20:15:19.478Z,100933.84
2022-12-25T20:18:22.091Z,100939.41
2022-12-25T20:21:27.325Z,100930.66
2022-12-25T20:24:30.117Z,100945.47
2022-12-25T20:27:32.722Z,100947.81
2022-12-25T20:30:39.556Z,100948.91
2022-12-25T20:33:42.264Z,100942.75
2022-12-25T20:36:45.465Z,100944.56
2022-12-25T20:39:48.009Z,100958.44
2022-12-25T20:42:50.470Z,100942.78
2022-12-25T20:45:53.153Z,100956.06
2022-12-25T20:48:55.876Z,100956.44
2022-12-25T20:52:04.805Z,100941.38
2022-12-25T20:55:08.704Z,100934.91
2022-12-25T20:58:11.366Z,100932.16
2022-12-25T21:01:17.973Z,100939.19
2022-12-25T21:04:20.784Z,100941.19
2022-12-25T21:07:23.264Z,100949.38
2022-12-25T21:10:25.730Z,100939.25
2022-12-25T21:13:30.663Z,100940.66
2022-12-25T21:16:33.353Z,100944.81
2022-12-25T21:19:36.021Z,100940.34
2022-12-25T21:22:38.541Z,100938.97
2022-12-25T21:25:41.213Z,100950.03
2022-12-25T21:28:44.034Z,100930.78
2022-12-25T21:32:04.744Z,100940.47
2022-12-25T21:35:07.467Z,100931.00
2022-12-25T21:38:11.212Z,100946.16
2022-12-25T21:41:14.967Z,100941.44
2022-12-25T21:44:17.440Z,100946.00
2022-12-25T21:47:19.933Z,100947.06
2022-12-25T21:50:41.386Z,100946.53
2022-12-25T21:53:43.854Z,100933.75
2022-12-25T21:56:48.108Z,100941.84
2022-12-25T21:59:50.664Z,100948.91
2022-12-25T22:02:53.254Z,100945.59
2022-12-25T22:06:21.408Z,100957.94
2022-12-25T22:09:24.736Z,100953.13
2022-12-25T22:12:45.500Z,100953.75
2022-12-25T22:16:06.477Z,100947.09
2022-12-25T22:19:27.895Z,100943.38
2022-12-25T22:22:31.295Z,100935.06
2022-12-25T22:25:33.761Z,100938.22
2022-12-25T22:28:36.385Z,100940.88
2022-12-25T22:31:46.192Z,100943.38
2022-12-25T22:34:49.275Z,100944.69
2022-12-25T22:37:53.461Z,100950.56
2022-12-25T22:40:56.015Z,100953.84
2022-12-25T22:47:20.905Z,100942.47
2022-12-25T22:50:23.517Z,100950.72
2022-12-25T22:53:26.047Z,100953.94
2022-12-25T22:56:28.662Z,100951.84
2022-12-25T22:59:33.059Z,100940.38
2022-12-25T23:02:35.756Z,100933.91
2022-12-25T23:05:38.423Z,100933.41
2022-12-25T23:08:41.035Z,100932.91
2022-12-25T23:11:43.582Z,100926.97
2022-12-25T23:14:47.038Z,100935.13
2022-12-25T23:18:07.730Z,100936.28
2022-12-25T23:21:35.054Z,100934.13
2022-12-25T23:24:55.854Z,100934.13
2022-12-25T23:27:58.384Z,100919.00
2022-12-25T23:31:01.004Z,100903.88
2022-12-25T23:34:04.977Z,100909.50
2022-12-25T23:37:08.185Z,100913.88
2022-12-25T23:40:11.380Z,100919.38
2022-12-25T23:43:14.161Z,100919.03
2022-12-25T23:46:17.162Z,100909.19
2022-12-25T23:49:21.384Z,100901.84
2022-12-25T23:52:24.434Z,100919.69
2022-12-25T23:55:27.183Z,100904.41
2022-12-25T23:58:30.155Z,100906.75
